sensor_id;sensor_type;location;lat;lon;timestamp;pressure;altitude;pressure_sealevel;temperature
68911;BMP180;55953;51.650;-0.522;2023-06-19T00:01:39;99990.20;;;17.10
68911;BMP180;55953;51.650;-0.522;2023-06-19T00:04:08;99989.00;;;17.10
68911;BMP180;55953;51.650;-0.522;2023-06-19T00:06:37;99992.40;;;17.10
68911;BMP180;55953;51.650;-0.522;2023-06-19T00:09:07;99987.80;;;17.10
68911;BMP180;55953;51.650;-0.522;2023-06-19T00:11:36;99990.00;;;17.10
68911;BMP180;55953;51.650;-0.522;2023-06-19T00:14:04;99992.20;;;17.00
68911;BMP180;55953;51.650;-0.522;2023-06-19T00:16:32;99991.20;;;17.00
68911;BMP180;55953;51.650;-0.522;2023-06-19T00:19:00;99991.00;;;17.00
68911;BMP180;55953;51.650;-0.522;2023-06-19T00:21:31;99992.60;;;16.92
68911;BMP180;55953;51.650;-0.522;2023-06-19T00:23:59;99994.20;;;16.90
68911;BMP180;55953;51.650;-0.522;2023-06-19T00:26:27;99992.60;;;16.80
68911;BMP180;55953;51.650;-0.522;2023-06-19T00:28:54;99995.40;;;16.80
68911;BMP180;55953;51.650;-0.522;2023-06-19T00:31:22;99989.40;;;16.76
68911;BMP180;55953;51.650;-0.522;2023-06-19T00:33:51;99998.80;;;16.70
68911;BMP180;55953;51.650;-0.522;2023-06-19T00:36:19;99997.80;;;16.70
68911;BMP180;55953;51.650;-0.522;2023-06-19T00:38:53;99996.40;;;16.68
68911;BMP180;55953;51.650;-0.522;2023-06-19T00:41:21;99999.80;;;16.60
68911;BMP180;55953;51.650;-0.522;2023-06-19T00:43:49;100004.60;;;16.60
68911;BMP180;55953;51.650;-0.522;2023-06-19T00:46:17;100002.40;;;16.60
68911;BMP180;55953;51.650;-0.522;2023-06-19T00:48:45;100002.00;;;16.50
68911;BMP180;55953;51.650;-0.522;2023-06-19T00:51:13;100005.40;;;16.50
68911;BMP180;55953;51.650;-0.522;2023-06-19T00:53:40;100003.40;;;16.50
68911;BMP180;55953;51.650;-0.522;2023-06-19T00:56:08;100008.80;;;16.40
68911;BMP180;55953;51.650;-0.522;2023-06-19T00:58:36;100006.80;;;16.40
68911;BMP180;55953;51.650;-0.522;2023-06-19T01:01:04;100008.60;;;16.40
68911;BMP180;55953;51.650;-0.522;2023-06-19T01:03:37;100007.40;;;16.32
68911;BMP180;55953;51.650;-0.522;2023-06-19T01:06:16;100005.00;;;16.30
68911;BMP180;55953;51.650;-0.522;2023-06-19T01:09:02;100009.60;;;16.30
68911;BMP180;55953;51.650;-0.522;2023-06-19T01:11:51;100009.40;;;16.20
68911;BMP180;55953;51.650;-0.522;2023-06-19T01:14:28;100013.20;;;16.20
68911;BMP180;55953;51.650;-0.522;2023-06-19T01:16:58;100006.20;;;16.12
68911;BMP180;55953;51.650;-0.522;2023-06-19T01:19:27;100003.80;;;16.10
68911;BMP180;55953;51.650;-0.522;2023-06-19T01:21:56;100001.80;;;16.10
68911;BMP180;55953;51.650;-0.522;2023-06-19T01:24:24;100002.80;;;16.10
68911;BMP180;55953;51.650;-0.522;2023-06-19T01:26:52;100006.80;;;16.10
68911;BMP180;55953;51.650;-0.522;2023-06-19T01:29:21;100004.00;;;16.04
68911;BMP180;55953;51.650;-0.522;2023-06-19T01:32:02;99999.00;;;16.00
68911;BMP180;55953;51.650;-0.522;2023-06-19T01:34:33;99999.20;;;16.00
68911;BMP180;55953;51.650;-0.522;2023-06-19T01:37:03;100003.80;;;16.00
68911;BMP180;55953;51.650;-0.522;2023-06-19T01:39:33;100005.40;;;15.90
68911;BMP180;55953;51.650;-0.522;2023-06-19T01:42:05;100004.80;;;15.90
68911;BMP180;55953;51.650;-0.522;2023-06-19T01:44:34;100006.60;;;15.82
68911;BMP180;55953;51.650;-0.522;2023-06-19T01:47:11;100009.00;;;15.80
68911;BMP180;55953;51.650;-0.522;2023-06-19T01:49:42;100004.60;;;15.80
68911;BMP180;55953;51.650;-0.522;2023-06-19T01:52:09;100006.80;;;15.80
68911;BMP180;55953;51.650;-0.522;2023-06-19T01:54:37;100008.40;;;15.74
68911;BMP180;55953;51.650;-0.522;2023-06-19T01:57:05;100008.60;;;15.70
68911;BMP180;55953;51.650;-0.522;2023-06-19T01:59:33;100011.60;;;15.70
68911;BMP180;55953;51.650;-0.522;2023-06-19T02:02:01;100012.80;;;15.70
68911;BMP180;55953;51.650;-0.522;2023-06-19T02:04:31;100005.40;;;15.70
68911;BMP180;55953;51.650;-0.522;2023-06-19T02:06:59;100002.60;;;15.68
68911;BMP180;55953;51.650;-0.522;2023-06-19T02:09:27;100009.80;;;15.66
68911;BMP180;55953;51.650;-0.522;2023-06-19T02:11:55;100013.60;;;15.60
68911;BMP180;55953;51.650;-0.522;2023-06-19T02:14:23;100013.40;;;15.60
68911;BMP180;55953;51.650;-0.522;2023-06-19T02:16:51;100017.00;;;15.60
68911;BMP180;55953;51.650;-0.522;2023-06-19T02:19:19;100015.60;;;15.60
68911;BMP180;55953;51.650;-0.522;2023-06-19T02:21:46;100021.20;;;15.56
68911;BMP180;55953;51.650;-0.522;2023-06-19T02:24:14;100024.00;;;15.50
68911;BMP180;55953;51.650;-0.522;2023-06-19T02:26:42;100029.60;;;15.50
68911;BMP180;55953;51.650;-0.522;2023-06-19T02:29:11;100028.80;;;15.50
68911;BMP180;55953;51.650;-0.522;2023-06-19T02:31:39;100029.80;;;15.50
68911;BMP180;55953;51.650;-0.522;2023-06-19T02:34:08;100027.40;;;15.48
68911;BMP180;55953;51.650;-0.522;2023-06-19T02:36:36;100027.40;;;15.40
68911;BMP180;55953;51.650;-0.522;2023-06-19T02:39:05;100025.00;;;15.40
68911;BMP180;55953;51.650;-0.522;2023-06-19T02:41:35;100030.80;;;15.40
68911;BMP180;55953;51.650;-0.522;2023-06-19T02:44:05;100028.40;;;15.40
68911;BMP180;55953;51.650;-0.522;2023-06-19T02:46:33;100034.00;;;15.40
68911;BMP180;55953;51.650;-0.522;2023-06-19T02:49:01;100037.40;;;15.30
68911;BMP180;55953;51.650;-0.522;2023-06-19T02:51:29;100039.40;;;15.34
68911;BMP180;55953;51.650;-0.522;2023-06-19T02:53:57;100042.00;;;15.30
68911;BMP180;55953;51.650;-0.522;2023-06-19T02:56:26;100040.40;;;15.30
68911;BMP180;55953;51.650;-0.522;2023-06-19T02:58:54;100043.80;;;15.30
68911;BMP180;55953;51.650;-0.522;2023-06-19T03:01:22;100047.00;;;15.28
68911;BMP180;55953;51.650;-0.522;2023-06-19T03:03:50;100047.60;;;15.20
68911;BMP180;55953;51.650;-0.522;2023-06-19T03:06:19;100055.00;;;15.20
68911;BMP180;55953;51.650;-0.522;2023-06-19T03:08:47;100055.60;;;15.18
68911;BMP180;55953;51.650;-0.522;2023-06-19T03:11:15;100057.40;;;15.10
68911;BMP180;55953;51.650;-0.522;2023-06-19T03:13:46;100061.20;;;15.10
68911;BMP180;55953;51.650;-0.522;2023-06-19T03:16:14;100070.60;;;15.10
68911;BMP180;55953;51.650;-0.522;2023-06-19T03:18:43;100076.00;;;15.10
68911;BMP180;55953;51.650;-0.522;2023-06-19T03:21:17;100089.40;;;15.10
68911;BMP180;55953;51.650;-0.522;2023-06-19T03:23:47;100083.60;;;15.00
68911;BMP180;55953;51.650;-0.522;2023-06-19T03:26:20;100087.20;;;15.00
68911;BMP180;55953;51.650;-0.522;2023-06-19T03:28:48;100098.40;;;15.00
68911;BMP180;55953;51.650;-0.522;2023-06-19T03:31:16;100092.40;;;14.90
68911;BMP180;55953;51.650;-0.522;2023-06-19T03:33:44;100099.40;;;14.90
68911;BMP180;55953;51.650;-0.522;2023-06-19T03:36:12;100100.20;;;14.90
68911;BMP180;55953;51.650;-0.522;2023-06-19T03:38:53;100106.20;;;14.90
68911;BMP180;55953;51.650;-0.522;2023-06-19T03:41:25;100104.20;;;14.90
68911;BMP180;55953;51.650;-0.522;2023-06-19T03:43:54;100109.40;;;14.86
68911;BMP180;55953;51.650;-0.522;2023-06-19T03:46:24;100115.00;;;14.80
68911;BMP180;55953;51.650;-0.522;2023-06-19T03:48:52;100112.40;;;14.80
68911;BMP180;55953;51.650;-0.522;2023-06-19T03:51:21;100120.20;;;14.80
68911;BMP180;55953;51.650;-0.522;2023-06-19T03:53:49;100115.00;;;14.80
68911;BMP180;55953;51.650;-0.522;2023-06-19T03:56:17;100122.80;;;14.80
68911;BMP180;55953;51.650;-0.522;2023-06-19T03:58:45;100124.40;;;14.80
68911;BMP180;55953;51.650;-0.522;2023-06-19T04:01:13;100123.00;;;14.80
68911;BMP180;55953;51.650;-0.522;2023-06-19T04:03:41;100130.40;;;14.80
68911;BMP180;55953;51.650;-0.522;2023-06-19T04:06:10;100135.40;;;14.80
68911;BMP180;55953;51.650;-0.522;2023-06-19T04:08:39;100137.80;;;14.80
68911;BMP180;55953;51.650;-0.522;2023-06-19T04:11:07;100140.60;;;14.80
68911;BMP180;55953;51.650;-0.522;2023-06-19T04:13:34;100146.20;;;14.80
68911;BMP180;55953;51.650;-0.522;2023-06-19T04:16:02;100151.20;;;14.80
68911;BMP180;55953;51.650;-0.522;2023-06-19T04:18:31;100148.40;;;14.80
68911;BMP180;55953;51.650;-0.522;2023-06-19T04:20:58;100155.00;;;14.80
68911;BMP180;55953;51.650;-0.522;2023-06-19T04:23:26;100151.80;;;14.80
68911;BMP180;55953;51.650;-0.522;2023-06-19T04:25:54;100151.20;;;14.80
68911;BMP180;55953;51.650;-0.522;2023-06-19T04:28:22;100156.40;;;14.80
68911;BMP180;55953;51.650;-0.522;2023-06-19T04:30:50;100160.80;;;14.80
68911;BMP180;55953;51.650;-0.522;2023-06-19T04:33:18;100160.40;;;14.82
68911;BMP180;55953;51.650;-0.522;2023-06-19T04:35:48;100160.20;;;14.90
68911;BMP180;55953;51.650;-0.522;2023-06-19T04:38:16;100157.80;;;14.90
68911;BMP180;55953;51.650;-0.522;2023-06-19T04:40:44;100157.40;;;14.90
68911;BMP180;55953;51.650;-0.522;2023-06-19T04:43:12;100155.40;;;14.90
68911;BMP180;55953;51.650;-0.522;2023-06-19T04:45:40;100159.60;;;15.00
68911;BMP180;55953;51.650;-0.522;2023-06-19T04:48:08;100161.20;;;15.00
68911;BMP180;55953;51.650;-0.522;2023-06-19T04:50:36;100163.40;;;15.02
68911;BMP180;55953;51.650;-0.522;2023-06-19T04:53:03;100171.60;;;15.10
68911;BMP180;55953;51.650;-0.522;2023-06-19T04:55:31;100179.80;;;15.10
68911;BMP180;55953;51.650;-0.522;2023-06-19T04:57:59;100181.60;;;15.20
68911;BMP180;55953;51.650;-0.522;2023-06-19T05:00:27;100187.00;;;15.20
68911;BMP180;55953;51.650;-0.522;2023-06-19T05:02:55;100189.00;;;15.30
68911;BMP180;55953;51.650;-0.522;2023-06-19T05:05:28;100183.80;;;15.34
68911;BMP180;55953;51.650;-0.522;2023-06-19T05:07:56;100183.00;;;15.40
68911;BMP180;55953;51.650;-0.522;2023-06-19T05:10:24;100182.40;;;15.50
68911;BMP180;55953;51.650;-0.522;2023-06-19T05:12:52;100184.60;;;15.50
68911;BMP180;55953;51.650;-0.522;2023-06-19T05:15:20;100178.60;;;15.60
68911;BMP180;55953;51.650;-0.522;2023-06-19T05:17:48;100172.00;;;15.60
68911;BMP180;55953;51.650;-0.522;2023-06-19T05:20:16;100179.60;;;15.60
68911;BMP180;55953;51.650;-0.522;2023-06-19T05:22:44;100179.00;;;15.64
68911;BMP180;55953;51.650;-0.522;2023-06-19T05:25:12;100179.80;;;15.70
68911;BMP180;55953;51.650;-0.522;2023-06-19T05:27:39;100178.60;;;15.80
68911;BMP180;55953;51.650;-0.522;2023-06-19T05:30:08;100177.60;;;15.80
68911;BMP180;55953;51.650;-0.522;2023-06-19T05:32:36;100176.40;;;15.80
68911;BMP180;55953;51.650;-0.522;2023-06-19T05:35:04;100182.20;;;15.80
68911;BMP180;55953;51.650;-0.522;2023-06-19T05:37:33;100181.60;;;15.90
68911;BMP180;55953;51.650;-0.522;2023-06-19T05:40:01;100182.40;;;15.90
68911;BMP180;55953;51.650;-0.522;2023-06-19T05:42:28;100189.60;;;16.00
68911;BMP180;55953;51.650;-0.522;2023-06-19T05:44:56;100189.00;;;16.00
68911;BMP180;55953;51.650;-0.522;2023-06-19T05:47:24;100191.20;;;16.00
68911;BMP180;55953;51.650;-0.522;2023-06-19T05:49:53;100190.00;;;16.00
68911;BMP180;55953;51.650;-0.522;2023-06-19T05:52:21;100187.80;;;16.00
68911;BMP180;55953;51.650;-0.522;2023-06-19T05:54:49;100193.80;;;16.08
68911;BMP180;55953;51.650;-0.522;2023-06-19T05:57:17;100197.40;;;16.02
68911;BMP180;55953;51.650;-0.522;2023-06-19T05:59:48;100198.40;;;16.10
68911;BMP180;55953;51.650;-0.522;2023-06-19T06:02:20;100200.40;;;16.10
68911;BMP180;55953;51.650;-0.522;2023-06-19T06:04:48;100202.20;;;16.10
68911;BMP180;55953;51.650;-0.522;2023-06-19T06:07:16;100197.40;;;16.12
68911;BMP180;55953;51.650;-0.522;2023-06-19T06:09:44;100196.40;;;16.10
68911;BMP180;55953;51.650;-0.522;2023-06-19T06:12:11;100200.80;;;16.20
68911;BMP180;55953;51.650;-0.522;2023-06-19T06:14:41;100200.80;;;16.20
68911;BMP180;55953;51.650;-0.522;2023-06-19T06:17:09;100204.20;;;16.30
68911;BMP180;55953;51.650;-0.522;2023-06-19T06:19:38;100204.80;;;16.40
68911;BMP180;55953;51.650;-0.522;2023-06-19T06:22:06;100206.60;;;16.50
68911;BMP180;55953;51.650;-0.522;2023-06-19T06:24:34;100207.40;;;16.60
68911;BMP180;55953;51.650;-0.522;2023-06-19T06:27:02;100206.80;;;16.78
68911;BMP180;55953;51.650;-0.522;2023-06-19T06:29:30;100205.40;;;16.86
68911;BMP180;55953;51.650;-0.522;2023-06-19T06:32:06;100204.60;;;16.90
68911;BMP180;55953;51.650;-0.522;2023-06-19T06:34:35;100210.40;;;17.10
68911;BMP180;55953;51.650;-0.522;2023-06-19T06:37:03;100210.80;;;17.20
68911;BMP180;55953;51.650;-0.522;2023-06-19T06:39:33;100213.00;;;17.30
68911;BMP180;55953;51.650;-0.522;2023-06-19T06:42:01;100211.80;;;17.40
68911;BMP180;55953;51.650;-0.522;2023-06-19T06:44:29;100220.00;;;17.50
68911;BMP180;55953;51.650;-0.522;2023-06-19T06:46:57;100213.00;;;17.50
68911;BMP180;55953;51.650;-0.522;2023-06-19T06:49:25;100222.00;;;17.70
68911;BMP180;55953;51.650;-0.522;2023-06-19T06:51:53;100221.00;;;17.80
68911;BMP180;55953;51.650;-0.522;2023-06-19T06:54:24;100218.40;;;17.86
68911;BMP180;55953;51.650;-0.522;2023-06-19T06:56:52;100222.60;;;17.90
68911;BMP180;55953;51.650;-0.522;2023-06-19T06:59:27;100219.80;;;18.00
68911;BMP180;55953;51.650;-0.522;2023-06-19T07:01:55;100224.00;;;18.16
68911;BMP180;55953;51.650;-0.522;2023-06-19T07:04:24;100219.80;;;18.20
68911;BMP180;55953;51.650;-0.522;2023-06-19T07:06:53;100224.40;;;18.38
68911;BMP180;55953;51.650;-0.522;2023-06-19T07:09:20;100225.20;;;18.40
68911;BMP180;55953;51.650;-0.522;2023-06-19T07:11:51;100219.60;;;18.50
68911;BMP180;55953;51.650;-0.522;2023-06-19T07:14:20;100223.40;;;18.50
68911;BMP180;55953;51.650;-0.522;2023-06-19T07:16:49;100219.00;;;18.50
68911;BMP180;55953;51.650;-0.522;2023-06-19T07:19:18;100220.40;;;18.50
68911;BMP180;55953;51.650;-0.522;2023-06-19T07:21:46;100217.00;;;18.70
68911;BMP180;55953;51.650;-0.522;2023-06-19T07:24:14;100214.20;;;18.70
68911;BMP180;55953;51.650;-0.522;2023-06-19T07:26:42;100212.00;;;18.70
68911;BMP180;55953;51.650;-0.522;2023-06-19T07:29:10;100207.40;;;18.68
68911;BMP180;55953;51.650;-0.522;2023-06-19T07:31:38;100211.40;;;18.58
68911;BMP180;55953;51.650;-0.522;2023-06-19T07:34:06;100208.40;;;18.62
68911;BMP180;55953;51.650;-0.522;2023-06-19T07:36:34;100210.60;;;18.60
68911;BMP180;55953;51.650;-0.522;2023-06-19T07:39:02;100215.60;;;18.68
68911;BMP180;55953;51.650;-0.522;2023-06-19T07:41:30;100216.80;;;18.60
68911;BMP180;55953;51.650;-0.522;2023-06-19T07:43:58;100218.40;;;18.60
68911;BMP180;55953;51.650;-0.522;2023-06-19T07:46:26;100220.00;;;18.60
68911;BMP180;55953;51.650;-0.522;2023-06-19T07:48:54;100227.80;;;18.60
68911;BMP180;55953;51.650;-0.522;2023-06-19T07:51:22;100229.00;;;18.60
68911;BMP180;55953;51.650;-0.522;2023-06-19T07:53:50;100233.00;;;18.60
68911;BMP180;55953;51.650;-0.522;2023-06-19T07:56:18;100228.20;;;18.80
68911;BMP180;55953;51.650;-0.522;2023-06-19T07:58:47;100226.40;;;19.18
68911;BMP180;55953;51.650;-0.522;2023-06-19T08:01:15;100224.20;;;19.50
68911;BMP180;55953;51.650;-0.522;2023-06-19T08:03:45;100227.00;;;19.80
68911;BMP180;55953;51.650;-0.522;2023-06-19T08:06:13;100227.00;;;20.00
68911;BMP180;55953;51.650;-0.522;2023-06-19T08:08:41;100225.40;;;20.12
68911;BMP180;55953;51.650;-0.522;2023-06-19T08:11:09;100220.80;;;20.30
68911;BMP180;55953;51.650;-0.522;2023-06-19T08:13:36;100217.20;;;20.50
68911;BMP180;55953;51.650;-0.522;2023-06-19T08:16:04;100219.00;;;20.50
68911;BMP180;55953;51.650;-0.522;2023-06-19T08:18:32;100219.00;;;20.50
68911;BMP180;55953;51.650;-0.522;2023-06-19T08:21:00;100215.40;;;20.60
68911;BMP180;55953;51.650;-0.522;2023-06-19T08:23:28;100216.80;;;20.60
68911;BMP180;55953;51.650;-0.522;2023-06-19T08:25:56;100224.00;;;20.60
68911;BMP180;55953;51.650;-0.522;2023-06-19T08:28:24;100226.20;;;20.44
68911;BMP180;55953;51.650;-0.522;2023-06-19T08:30:52;100231.20;;;20.56
68911;BMP180;55953;51.650;-0.522;2023-06-19T08:33:20;100224.80;;;20.52
68911;BMP180;55953;51.650;-0.522;2023-06-19T08:35:47;100223.40;;;20.80
68911;BMP180;55953;51.650;-0.522;2023-06-19T08:38:15;100225.00;;;20.80
68911;BMP180;55953;51.650;-0.522;2023-06-19T08:40:44;100218.60;;;20.70
68911;BMP180;55953;51.650;-0.522;2023-06-19T08:43:13;100226.00;;;20.90
68911;BMP180;55953;51.650;-0.522;2023-06-19T08:45:41;100219.60;;;21.02
68911;BMP180;55953;51.650;-0.522;2023-06-19T08:48:13;100223.60;;;21.10
68911;BMP180;55953;51.650;-0.522;2023-06-19T08:50:41;100225.60;;;21.10
68911;BMP180;55953;51.650;-0.522;2023-06-19T08:53:09;100223.00;;;21.20
68911;BMP180;55953;51.650;-0.522;2023-06-19T08:55:39;100224.80;;;21.30
68911;BMP180;55953;51.650;-0.522;2023-06-19T08:58:11;100227.60;;;21.30
68911;BMP180;55953;51.650;-0.522;2023-06-19T09:00:38;100226.20;;;21.40
68911;BMP180;55953;51.650;-0.522;2023-06-19T09:03:06;100223.20;;;21.50
68911;BMP180;55953;51.650;-0.522;2023-06-19T09:05:41;100232.60;;;21.44
68911;BMP180;55953;51.650;-0.522;2023-06-19T09:08:19;100231.20;;;21.34
68911;BMP180;55953;51.650;-0.522;2023-06-19T09:11:04;100230.60;;;21.30
68911;BMP180;55953;51.650;-0.522;2023-06-19T09:13:34;100239.60;;;21.30
68911;BMP180;55953;51.650;-0.522;2023-06-19T09:16:06;100242.00;;;21.20
68911;BMP180;55953;51.650;-0.522;2023-06-19T09:18:48;100237.40;;;21.20
68911;BMP180;55953;51.650;-0.522;2023-06-19T09:21:21;100232.40;;;21.30
68911;BMP180;55953;51.650;-0.522;2023-06-19T09:23:52;100229.20;;;21.60
68911;BMP180;55953;51.650;-0.522;2023-06-19T09:26:27;100227.20;;;22.02
68911;BMP180;55953;51.650;-0.522;2023-06-19T09:28:55;100223.20;;;22.38
68911;BMP180;55953;51.650;-0.522;2023-06-19T09:31:33;100228.20;;;22.62
68911;BMP180;55953;51.650;-0.522;2023-06-19T09:34:01;100230.00;;;22.70
68911;BMP180;55953;51.650;-0.522;2023-06-19T09:36:32;100234.20;;;22.80
68911;BMP180;55953;51.650;-0.522;2023-06-19T09:39:02;100232.00;;;22.90
68911;BMP180;55953;51.650;-0.522;2023-06-19T09:41:32;100228.80;;;22.96
68911;BMP180;55953;51.650;-0.522;2023-06-19T09:44:02;100229.20;;;23.10
68911;BMP180;55953;51.650;-0.522;2023-06-19T09:46:32;100241.60;;;23.20
68911;BMP180;55953;51.650;-0.522;2023-06-19T09:49:06;100245.60;;;23.30
68911;BMP180;55953;51.650;-0.522;2023-06-19T09:51:37;100246.00;;;23.40
68911;BMP180;55953;51.650;-0.522;2023-06-19T09:54:09;100243.40;;;23.20
68911;BMP180;55953;51.650;-0.522;2023-06-19T09:56:37;100242.40;;;23.20
68911;BMP180;55953;51.650;-0.522;2023-06-19T09:59:06;100238.40;;;23.50
68911;BMP180;55953;51.650;-0.522;2023-06-19T10:01:37;100233.00;;;23.70
68911;BMP180;55953;51.650;-0.522;2023-06-19T10:04:08;100235.00;;;23.80
68911;BMP180;55953;51.650;-0.522;2023-06-19T10:06:46;100234.20;;;23.90
68911;BMP180;55953;51.650;-0.522;2023-06-19T10:09:15;100227.80;;;23.90
68911;BMP180;55953;51.650;-0.522;2023-06-19T10:11:49;100228.00;;;23.80
68911;BMP180;55953;51.650;-0.522;2023-06-19T10:14:22;100230.00;;;23.70
68911;BMP180;55953;51.650;-0.522;2023-06-19T10:16:50;100231.80;;;23.70
68911;BMP180;55953;51.650;-0.522;2023-06-19T10:19:21;100230.40;;;23.70
68911;BMP180;55953;51.650;-0.522;2023-06-19T10:21:53;100237.00;;;23.70
68911;BMP180;55953;51.650;-0.522;2023-06-19T10:24:23;100233.00;;;23.78
68911;BMP180;55953;51.650;-0.522;2023-06-19T10:27:02;100236.80;;;23.80
68911;BMP180;55953;51.650;-0.522;2023-06-19T10:29:40;100237.40;;;23.60
68911;BMP180;55953;51.650;-0.522;2023-06-19T10:32:20;100241.20;;;23.40
68911;BMP180;55953;51.650;-0.522;2023-06-19T10:34:48;100243.80;;;23.20
68911;BMP180;55953;51.650;-0.522;2023-06-19T10:37:32;100240.00;;;23.00
68911;BMP180;55953;51.650;-0.522;2023-06-19T10:40:00;100240.00;;;22.90
68911;BMP180;55953;51.650;-0.522;2023-06-19T10:42:28;100234.00;;;22.80
68911;BMP180;55953;51.650;-0.522;2023-06-19T10:45:08;100235.80;;;22.80
68911;BMP180;55953;51.650;-0.522;2023-06-19T10:47:40;100228.00;;;23.00
68911;BMP180;55953;51.650;-0.522;2023-06-19T10:50:15;100220.40;;;23.00
68911;BMP180;55953;51.650;-0.522;2023-06-19T10:52:44;100221.80;;;23.00
68911;BMP180;55953;51.650;-0.522;2023-06-19T10:55:12;100222.60;;;23.10
68911;BMP180;55953;51.650;-0.522;2023-06-19T10:57:44;100219.40;;;23.10
68911;BMP180;55953;51.650;-0.522;2023-06-19T11:02:53;100220.00;;;23.20
68911;BMP180;55953;51.650;-0.522;2023-06-19T11:05:23;100227.40;;;23.20
68911;BMP180;55953;51.650;-0.522;2023-06-19T11:07:56;100223.00;;;23.16
68911;BMP180;55953;51.650;-0.522;2023-06-19T11:10:28;100222.40;;;23.20
68911;BMP180;55953;51.650;-0.522;2023-06-19T11:12:58;100216.20;;;23.38
68911;BMP180;55953;51.650;-0.522;2023-06-19T11:15:34;100222.40;;;23.50
68911;BMP180;55953;51.650;-0.522;2023-06-19T11:18:02;100222.00;;;23.60
68911;BMP180;55953;51.650;-0.522;2023-06-19T11:20:30;100221.60;;;23.80
68911;BMP180;55953;51.650;-0.522;2023-06-19T11:23:00;100215.40;;;24.20
68911;BMP180;55953;51.650;-0.522;2023-06-19T11:25:41;100210.60;;;24.58
68911;BMP180;55953;51.650;-0.522;2023-06-19T11:28:14;100209.20;;;25.00
68911;BMP180;55953;51.650;-0.522;2023-06-19T11:30:42;100202.20;;;25.20
68911;BMP180;55953;51.650;-0.522;2023-06-19T11:33:21;100206.40;;;25.20
68911;BMP180;55953;51.650;-0.522;2023-06-19T11:35:53;100210.00;;;25.10
68911;BMP180;55953;51.650;-0.522;2023-06-19T11:38:25;100205.40;;;25.30
68911;BMP180;55953;51.650;-0.522;2023-06-19T11:40:55;100208.00;;;25.60
68911;BMP180;55953;51.650;-0.522;2023-06-19T11:43:26;100210.00;;;25.70
68911;BMP180;55953;51.650;-0.522;2023-06-19T11:46:02;100211.40;;;25.80
68911;BMP180;55953;51.650;-0.522;2023-06-19T11:48:32;100205.80;;;26.00
68911;BMP180;55953;51.650;-0.522;2023-06-19T11:51:00;100197.60;;;26.28
68911;BMP180;55953;51.650;-0.522;2023-06-19T11:53:28;100200.60;;;26.30
68911;BMP180;55953;51.650;-0.522;2023-06-19T11:55:56;100200.40;;;26.10
68911;BMP180;55953;51.650;-0.522;2023-06-19T11:58:24;100194.80;;;26.00
68911;BMP180;55953;51.650;-0.522;2023-06-19T12:00:53;100198.40;;;26.00
68911;BMP180;55953;51.650;-0.522;2023-06-19T12:03:21;100191.80;;;26.20
68911;BMP180;55953;51.650;-0.522;2023-06-19T12:05:49;100191.20;;;26.30
68911;BMP180;55953;51.650;-0.522;2023-06-19T12:08:17;100191.00;;;26.40
68911;BMP180;55953;51.650;-0.522;2023-06-19T12:10:45;100197.00;;;26.60
68911;BMP180;55953;51.650;-0.522;2023-06-19T12:13:12;100197.00;;;26.80
68911;BMP180;55953;51.650;-0.522;2023-06-19T12:15:40;100197.40;;;26.90
68911;BMP180;55953;51.650;-0.522;2023-06-19T12:18:08;100199.60;;;27.00
68911;BMP180;55953;51.650;-0.522;2023-06-19T12:20:38;100195.40;;;27.00
68911;BMP180;55953;51.650;-0.522;2023-06-19T12:23:06;100199.60;;;26.80
68911;BMP180;55953;51.650;-0.522;2023-06-19T12:25:34;100204.00;;;26.66
68911;BMP180;55953;51.650;-0.522;2023-06-19T12:28:01;100207.60;;;26.50
68911;BMP180;55953;51.650;-0.522;2023-06-19T12:30:36;100204.20;;;26.50
68911;BMP180;55953;51.650;-0.522;2023-06-19T12:33:04;100193.40;;;26.80
68911;BMP180;55953;51.650;-0.522;2023-06-19T12:35:32;100193.40;;;27.04
68911;BMP180;55953;51.650;-0.522;2023-06-19T12:38:00;100190.00;;;27.28
68911;BMP180;55953;51.650;-0.522;2023-06-19T12:40:28;100180.80;;;27.36
68911;BMP180;55953;51.650;-0.522;2023-06-19T12:42:56;100184.40;;;27.40
68911;BMP180;55953;51.650;-0.522;2023-06-19T12:45:24;100188.60;;;27.40
68911;BMP180;55953;51.650;-0.522;2023-06-19T12:47:52;100179.40;;;27.64
68911;BMP180;55953;51.650;-0.522;2023-06-19T12:50:22;100180.00;;;27.90
68911;BMP180;55953;51.650;-0.522;2023-06-19T12:52:50;100183.40;;;27.98
68911;BMP180;55953;51.650;-0.522;2023-06-19T12:55:18;100182.20;;;27.90
68911;BMP180;55953;51.650;-0.522;2023-06-19T12:57:46;100176.40;;;28.00
68911;BMP180;55953;51.650;-0.522;2023-06-19T13:00:14;100181.20;;;28.10
68911;BMP180;55953;51.650;-0.522;2023-06-19T13:02:42;100179.80;;;28.20
68911;BMP180;55953;51.650;-0.522;2023-06-19T13:05:10;100180.40;;;28.00
68911;BMP180;55953;51.650;-0.522;2023-06-19T13:07:38;100185.80;;;28.10
68911;BMP180;55953;51.650;-0.522;2023-06-19T13:10:06;100179.40;;;27.90
68911;BMP180;55953;51.650;-0.522;2023-06-19T13:12:34;100191.80;;;27.60
68911;BMP180;55953;51.650;-0.522;2023-06-19T13:15:03;100190.80;;;27.40
68911;BMP180;55953;51.650;-0.522;2023-06-19T13:17:31;100193.20;;;27.50
68911;BMP180;55953;51.650;-0.522;2023-06-19T13:19:58;100189.80;;;27.40
68911;BMP180;55953;51.650;-0.522;2023-06-19T13:22:27;100182.80;;;27.30
68911;BMP180;55953;51.650;-0.522;2023-06-19T13:24:54;100186.40;;;27.20
68911;BMP180;55953;51.650;-0.522;2023-06-19T13:27:22;100187.00;;;27.10
68911;BMP180;55953;51.650;-0.522;2023-06-19T13:29:50;100185.60;;;26.90
68911;BMP180;55953;51.650;-0.522;2023-06-19T13:32:18;100176.60;;;26.90
68911;BMP180;55953;51.650;-0.522;2023-06-19T13:34:46;100179.80;;;27.06
68911;BMP180;55953;51.650;-0.522;2023-06-19T13:37:14;100191.00;;;27.40
68911;BMP180;55953;51.650;-0.522;2023-06-19T13:39:42;100194.20;;;27.50
68911;BMP180;55953;51.650;-0.522;2023-06-19T13:42:10;100194.00;;;27.50
68911;BMP180;55953;51.650;-0.522;2023-06-19T13:44:38;100191.40;;;27.60
68911;BMP180;55953;51.650;-0.522;2023-06-19T13:47:06;100190.60;;;27.62
68911;BMP180;55953;51.650;-0.522;2023-06-19T13:49:34;100193.40;;;27.80
68911;BMP180;55953;51.650;-0.522;2023-06-19T13:52:03;100189.60;;;27.82
68911;BMP180;55953;51.650;-0.522;2023-06-19T13:54:31;100189.40;;;27.80
68911;BMP180;55953;51.650;-0.522;2023-06-19T13:56:59;100188.20;;;27.60
68911;BMP180;55953;51.650;-0.522;2023-06-19T13:59:27;100190.20;;;27.36